Time;durP1;ratioP1;P1;durP2;ratioP2;P2;SDS_P1;SDS_P2;PMS_P1;PMS_P2;Temp;Humidity;BMP_temperature;BMP_pressure;BME280_temperature;BME280_humidity;BME280_pressure;Samples;Min_cycle;Max_cycle;Signal;HPM_P1;HPM_P2
2023/04/06 00:01:14;;;;;;;;;;;;;;;-146.32;100.00;63746.28;4141333;28;19992;-64
2023/04/06 00:03:16;;;;;;;;;;;;;;;-146.32;100.00;63746.28;4144761;28;20024;-64
2023/04/06 00:05:18;;;;;;;;;;;;;;;-146.32;100.00;63746.28;4140462;28;20020;-64
2023/04/06 00:07:20;;;;;;;;;;;;;;;-146.32;100.00;63746.28;4140047;28;20020;-64
2023/04/06 00:09:22;;;;;;;;;;;;;;;-146.32;100.00;63746.28;4140334;28;20412;-64
2023/04/06 00:11:25;;;;;;;;;;;;;;;-146.32;100.00;63746.28;4139046;28;20107;-64
2023/04/06 00:13:29;;;;;;;;;;;;;;;-146.32;100.00;63746.28;4139272;28;20023;-64
2023/04/06 00:15:31;;;;;;;;;;;;;;;-146.32;100.00;63746.28;4137265;28;20041;-64
2023/04/06 00:17:33;;;;;;;;;;;;;;;-146.32;100.00;63746.28;4139501;28;20028;-64
2023/04/06 00:19:35;;;;;;;;;;;;;;;-146.32;100.00;63746.28;4139711;28;20391;-64
2023/04/06 00:21:38;;;;;;;;;;;;;;;-146.32;100.00;63746.28;4139665;28;20455;-64
2023/04/06 00:23:40;;;;;;;;;;;;;;;-146.32;100.00;63746.28;4139228;28;20014;-64
2023/04/06 00:25:42;;;;;;;;;;;;;;;-146.32;100.00;63746.28;4139854;28;20033;-64
2023/04/06 00:27:44;;;;;;;;;;;;;;;-146.32;100.00;63746.28;4139315;28;20024;-64
2023/04/06 00:29:48;;;;;;;;;;;;;;;-146.32;100.00;63746.28;4145920;28;20020;-64
2023/04/06 00:31:50;;;;;;;;;;;;;;;-146.32;100.00;63746.28;4139207;28;20041;-64
2023/04/06 00:33:52;;;;;;;;;;;;;;;-146.32;100.00;63746.28;4145802;28;20884;-64
2023/04/06 00:35:54;;;;;;;;;;;;;;;-146.32;100.00;63746.28;4139682;28;20439;-64
2023/04/06 00:37:56;;;;;;;;;;;;;;;-146.32;100.00;63746.28;4139430;28;20023;-64
2023/04/06 00:39:59;;;;;;;;;;;;;;;-146.32;100.00;63746.28;4139756;28;20048;-64
2023/04/06 00:42:01;;;;;;;;;;;;;;;-146.32;100.00;63746.28;4137522;28;20908;-64
2023/04/06 00:44:03;;;;;;;;;;;;;;;-146.32;100.00;63746.28;4137203;28;20116;-64
2023/04/06 00:46:07;;;;;;;;;;;;;;;-146.32;100.00;63746.28;4139554;28;20097;-64
2023/04/06 00:48:09;;;;;;;;;;;;;;;-146.32;100.00;63746.28;4144997;28;20020;-64
2023/04/06 00:50:11;;;;;;;;;;;;;;;-146.32;100.00;63746.28;4139317;28;20012;-64
2023/04/06 00:52:13;;;;;;;;;;;;;;;-146.32;100.00;63746.28;4138517;28;20348;-64
2023/04/06 00:54:16;;;;;;;;;;;;;;;-146.32;100.00;63746.28;4139229;28;19932;-64
2023/04/06 00:56:19;;;;;;;;;;;;;;;-146.32;100.00;63746.28;4138355;28;20491;-64
2023/04/06 00:58:30;;;;;;;;;;;;;;;-146.32;100.00;63746.28;4139151;28;20008;-64
2023/04/06 01:00:40;;;;;;;;;;;;;;;-146.32;100.00;63746.28;4145347;28;20487;-64
2023/04/06 01:02:46;;;;;;;;;;;;;;;-146.32;100.00;63746.28;4137522;28;20040;-64
2023/04/06 01:04:52;;;;;;;;;;;;;;;-146.32;100.00;63746.28;4145813;28;20008;-64
2023/04/06 01:07:17;;;;;;;;;;;;;;;-146.32;100.00;63746.28;4139457;28;20008;-64
2023/04/06 01:09:37;;;;;;;;;;;;;;;-146.32;100.00;63746.28;4137767;28;19972;-64
2023/04/06 01:11:45;;;;;;;;;;;;;;;-146.32;100.00;63746.28;4137358;28;20442;-64
2023/04/06 01:13:52;;;;;;;;;;;;;;;-146.32;100.00;63746.28;4161791;28;20393;-64
2023/04/06 01:16:04;;;;;;;;;;;;;;;-146.32;100.00;63746.28;4145385;28;20337;-64
2023/04/06 01:18:18;;;;;;;;;;;;;;;-146.32;100.00;63746.28;4135925;28;20020;-64
2023/04/06 01:20:31;;;;;;;;;;;;;;;-146.32;100.00;63746.28;4153960;28;20015;-64
2023/04/06 01:22:36;;;;;;;;;;;;;;;-146.32;100.00;63746.28;4143642;28;20141;-64
2023/04/06 01:24:39;;;;;;;;;;;;;;;-146.32;100.00;63746.28;4139014;28;20004;-64
2023/04/06 01:27:00;;;;;;;;;;;;;;;-146.32;100.00;63746.28;4136233;28;20022;-64
2023/04/06 01:29:11;;;;;;;;;;;;;;;-146.32;100.00;63746.28;4120756;28;19969;-64
2023/04/06 01:31:15;;;;;;;;;;;;;;;-146.32;100.00;63746.28;4137752;28;19930;-64
2023/04/06 01:33:28;;;;;;;;;;;;;;;-146.32;100.00;63746.28;4121934;28;19926;-64
2023/04/06 01:35:37;;;;;;;;;;;;;;;-146.32;100.00;63746.28;4122280;28;20017;-64
2023/04/06 01:38:00;;;;;;;;;;;;;;;-146.32;100.00;63746.28;4119942;28;19977;-64
2023/04/06 01:40:07;;;;;;;;;;;;;;;-146.32;100.00;63746.28;4137377;28;20020;-64
2023/04/06 01:42:18;;;;;;;;;;;;;;;-146.32;100.00;63746.28;4128064;28;20008;-64
2023/04/06 01:44:23;;;;;;;;;;;;;;;-146.32;100.00;63746.28;4122197;28;20527;-64
2023/04/06 01:46:33;;;;;;;;;;;;;;;-146.32;100.00;63746.28;4137071;28;20483;-64
2023/04/06 01:48:37;;;;;;;;;;;;;;;-146.32;100.00;63746.28;4121619;28;20033;-65
2023/04/06 01:50:49;;;;;;;;;;;;;;;-146.32;100.00;63746.28;4136857;28;20125;-65
2023/04/06 01:52:57;;;;;;;;;;;;;;;-146.32;100.00;63746.28;4120818;28;20020;-65
2023/04/06 01:55:03;;;;;;;;;;;;;;;-146.32;100.00;63746.28;4127335;28;20024;-65
2023/04/06 01:57:25;;;;;;;;;;;;;;;-146.32;100.00;63746.28;4121271;28;20013;-65
2023/04/06 01:59:46;;;;;;;;;;;;;;;-146.32;100.00;63746.28;4121707;28;19961;-65
2023/04/06 02:02:04;;;;;;;;;;;;;;;-146.32;100.00;63746.28;4121793;28;20016;-65
2023/04/06 02:04:08;;;;;;;;;;;;;;;-146.32;100.00;63746.28;4129017;28;20021;-64
2023/04/06 02:06:10;;;;;;;;;;;;;;;-146.32;100.00;63746.28;4144825;28;20016;-64
2023/04/06 02:08:15;;;;;;;;;;;;;;;-146.32;100.00;63746.28;4121713;28;19976;-64
2023/04/06 02:10:19;;;;;;;;;;;;;;;-146.32;100.00;63746.28;4122293;28;20012;-64
2023/04/06 02:12:21;;;;;;;;;;;;;;;-146.32;100.00;63746.28;4127916;28;20020;-65
2023/04/06 02:14:25;;;;;;;;;;;;;;;-146.32;100.00;63746.28;4121254;28;20017;-65
2023/04/06 02:16:29;;;;;;;;;;;;;;;-146.32;100.00;63746.28;4128291;28;20060;-64
2023/04/06 02:18:31;;;;;;;;;;;;;;;-146.32;100.00;63746.28;4122034;28;20021;-64
2023/04/06 02:20:33;;;;;;;;;;;;;;;-146.32;100.00;63746.28;4127549;28;20400;-64
2023/04/06 02:22:36;;;;;;;;;;;;;;;-146.32;100.00;63746.28;4120037;28;20009;-64
2023/04/06 02:24:38;;;;;;;;;;;;;;;-146.32;100.00;63746.28;4104635;28;19953;-64
2023/04/06 02:26:42;;;;;;;;;;;;;;;-146.32;100.00;63746.28;4124037;28;20028;-64
2023/04/06 02:28:45;;;;;;;;;;;;;;;-146.32;100.00;63746.28;4131490;28;20033;-64
2023/04/06 02:30:47;;;;;;;;;;;;;;;-146.32;100.00;63746.28;4125905;28;20025;-64
2023/04/06 02:32:49;;;;;;;;;;;;;;;-146.32;100.00;63746.28;4123979;28;20025;-64
2023/04/06 02:34:52;;;;;;;;;;;;;;;-146.32;100.00;63746.28;4123920;28;20413;-64
2023/04/06 02:36:56;;;;;;;;;;;;;;;-146.32;100.00;63746.28;4155562;28;20021;-64
2023/04/06 02:38:58;;;;;;;;;;;;;;;-146.32;100.00;63746.28;4130986;28;20025;-64
2023/04/06 02:41:00;;;;;;;;;;;;;;;-146.32;100.00;63746.28;4125675;28;20153;-64
2023/04/06 02:43:05;;;;;;;;;;;;;;;-146.32;100.00;63746.28;4130478;28;20103;-64
2023/04/06 02:45:08;;;;;;;;;;;;;;;-146.32;100.00;63746.28;4131202;28;20012;-64
2023/04/06 02:47:16;;;;;;;;;;;;;;;-146.32;100.00;63746.28;4123882;28;20032;-64
2023/04/06 02:49:23;;;;;;;;;;;;;;;-146.32;100.00;63746.28;4124054;28;20025;-64
2023/04/06 02:51:29;;;;;;;;;;;;;;;-146.32;100.00;63746.28;4124015;28;20032;-64
2023/04/06 02:53:40;;;;;;;;;;;;;;;-146.32;100.00;63746.28;4123439;28;20464;-64
2023/04/06 02:55:42;;;;;;;;;;;;;;;-146.32;100.00;63746.28;4123892;28;20416;-64
2023/04/06 02:57:44;;;;;;;;;;;;;;;-146.32;100.00;63746.28;4124715;28;20033;-64
2023/04/06 02:59:48;;;;;;;;;;;;;;;-146.32;100.00;63746.28;4125836;28;20020;-64
2023/04/06 03:01:55;;;;;;;;;;;;;;;-146.32;100.00;63746.28;4146518;28;20020;-64
2023/04/06 03:03:57;;;;;;;;;;;;;;;-146.32;100.00;63746.28;4138161;28;20013;-64
2023/04/06 03:06:02;;;;;;;;;;;;;;;-146.32;100.00;63746.28;4130562;28;20041;-64
2023/04/06 03:08:06;;;;;;;;;;;;;;;-146.32;100.00;63746.28;4122635;28;20596;-64
2023/04/06 03:10:16;;;;;;;;;;;;;;;-146.32;100.00;63746.28;4139584;28;20033;-64
2023/04/06 03:12:19;;;;;;;;;;;;;;;-146.32;100.00;63746.28;4130053;28;20017;-64
2023/04/06 03:14:41;;;;;;;;;;;;;;;-146.32;100.00;63746.28;4124869;28;20021;-64
2023/04/06 03:16:45;;;;;;;;;;;;;;;-146.32;100.00;63746.28;4123803;28;20024;-64
2023/04/06 03:18:50;;;;;;;;;;;;;;;-146.32;100.00;63746.28;4139003;28;20024;-64
2023/04/06 03:20:53;;;;;;;;;;;;;;;-146.32;100.00;63746.28;4130435;28;20016;-64
2023/04/06 03:22:56;;;;;;;;;;;;;;;-146.32;100.00;63746.28;4124564;28;20428;-63
2023/04/06 03:25:02;;;;;;;;;;;;;;;-146.32;100.00;63746.28;4123139;28;20032;-63
2023/04/06 03:27:06;;;;;;;;;;;;;;;-146.32;100.00;63746.28;4130604;28;20475;-64
2023/04/06 03:29:08;;;;;;;;;;;;;;;-146.32;100.00;63746.28;4121596;28;20016;-64
2023/04/06 03:31:11;;;;;;;;;;;;;;;-146.32;100.00;63746.28;4139472;28;20017;-65
2023/04/06 03:33:31;;;;;;;;;;;;;;;-146.32;100.00;63746.28;4123009;28;20020;-65
2023/04/06 03:35:34;;;;;;;;;;;;;;;-146.32;100.00;63746.28;4123053;28;20026;-64
2023/04/06 03:37:36;;;;;;;;;;;;;;;-146.32;100.00;63746.28;4124193;28;20013;-64
2023/04/06 03:39:39;;;;;;;;;;;;;;;-146.32;100.00;63746.28;4146776;28;20040;-64
2023/04/06 03:41:41;;;;;;;;;;;;;;;-146.32;100.00;63746.28;4130022;28;20069;-65
2023/04/06 03:43:56;;;;;;;;;;;;;;;-146.32;100.00;63746.28;4130995;28;20012;-64
2023/04/06 03:45:58;;;;;;;;;;;;;;;-146.32;100.00;63746.28;4138805;28;20025;-64
2023/04/06 03:48:01;;;;;;;;;;;;;;;-146.32;100.00;63746.28;4151911;28;19969;-64
2023/04/06 03:50:06;;;;;;;;;;;;;;;-146.32;100.00;63746.28;4146040;28;20444;-64
2023/04/06 03:52:11;;;;;;;;;;;;;;;-146.32;100.00;63746.28;4158111;28;20135;-64
2023/04/06 03:54:13;;;;;;;;;;;;;;;-146.32;100.00;63746.28;4131965;28;20033;-64
2023/04/06 03:56:15;;;;;;;;;;;;;;;-146.32;100.00;63746.28;4131018;28;20020;-64
2023/04/06 03:58:17;;;;;;;;;;;;;;;-146.32;100.00;63746.28;4130945;28;19989;-64
2023/04/06 04:00:23;;;;;;;;;;;;;;;-146.32;100.00;63746.28;4136958;28;20024;-64
2023/04/06 04:02:25;;;;;;;;;;;;;;;-146.32;100.00;63746.28;4144796;28;20024;-64
2023/04/06 04:04:28;;;;;;;;;;;;;;;-146.32;100.00;63746.28;4129418;28;20057;-64
2023/04/06 04:06:31;;;;;;;;;;;;;;;-146.32;100.00;63746.28;4123061;28;19977;-64
2023/04/06 04:08:33;;;;;;;;;;;;;;;-146.32;100.00;63746.28;4122457;28;20432;-64
2023/04/06 04:10:35;;;;;;;;;;;;;;;-146.32;100.00;63746.28;4122378;28;20053;-64
2023/04/06 04:12:37;;;;;;;;;;;;;;;-146.32;100.00;63746.28;4141219;28;20012;-64
2023/04/06 04:14:39;;;;;;;;;;;;;;;-146.32;100.00;63746.28;4128230;28;20017;-64
2023/04/06 04:16:42;;;;;;;;;;;;;;;-146.32;100.00;63746.28;4128693;28;19957;-64
2023/04/06 04:18:45;;;;;;;;;;;;;;;-146.32;100.00;63746.28;4145470;28;20036;-63
2023/04/06 04:20:47;;;;;;;;;;;;;;;-146.32;100.00;63746.28;4139670;28;20013;-63
2023/04/06 04:22:51;;;;;;;;;;;;;;;-146.32;100.00;63746.28;4137401;28;20021;-64
2023/04/06 04:24:53;;;;;;;;;;;;;;;-146.32;100.00;63746.28;4161241;28;20371;-63
2023/04/06 04:26:55;;;;;;;;;;;;;;;-146.32;100.00;63746.28;4140084;28;21331;-64
2023/04/06 04:28:57;;;;;;;;;;;;;;;-146.32;100.00;63746.28;4145734;28;20014;-63
2023/04/06 04:31:00;;;;;;;;;;;;;;;-146.32;100.00;63746.28;4145276;28;20011;-65
2023/04/06 04:33:05;;;;;;;;;;;;;;;-146.32;100.00;63746.28;4138815;28;20004;-63
2023/04/06 04:35:08;;;;;;;;;;;;;;;-146.32;100.00;63746.28;4145124;28;20053;-63
2023/04/06 04:37:13;;;;;;;;;;;;;;;-146.32;100.00;63746.28;4144945;28;20016;-64
2023/04/06 04:39:25;;;;;;;;;;;;;;;-146.32;100.00;63746.28;4161300;28;20008;-64
2023/04/06 04:41:36;;;;;;;;;;;;;;;-146.32;100.00;63746.28;4152131;28;20019;-64
2023/04/06 04:43:42;;;;;;;;;;;;;;;-146.32;100.00;63746.28;4143859;28;20504;-62
2023/04/06 04:45:50;;;;;;;;;;;;;;;-146.32;100.00;63746.28;4151289;28;19951;-63
2023/04/06 04:48:14;;;;;;;;;;;;;;;-146.32;100.00;63746.28;4138932;28;19980;-63
2023/04/06 04:50:27;;;;;;;;;;;;;;;-146.32;100.00;63746.28;4144886;28;19969;-65
2023/04/06 04:52:33;;;;;;;;;;;;;;;-146.32;100.00;63746.28;4152002;28;20025;-64
2023/04/06 04:54:48;;;;;;;;;;;;;;;-146.32;100.00;63746.28;4145485;28;20028;-64
2023/04/06 04:57:01;;;;;;;;;;;;;;;-146.32;100.00;63746.28;4138643;28;20009;-63
2023/04/06 04:59:29;;;;;;;;;;;;;;;-146.32;100.00;63746.28;4136361;28;19963;-63
2023/04/06 05:01:37;;;;;;;;;;;;;;;-146.32;100.00;63746.28;4145624;28;20013;-64
2023/04/06 05:03:39;;;;;;;;;;;;;;;-146.32;100.00;63746.28;4160487;28;20008;-63
2023/04/06 05:05:44;;;;;;;;;;;;;;;-146.32;100.00;63746.28;4145048;28;20024;-64
2023/04/06 05:07:48;;;;;;;;;;;;;;;-146.32;100.00;63746.28;4144268;28;20467;-63
2023/04/06 05:10:02;;;;;;;;;;;;;;;-146.32;100.00;63746.28;4145373;28;20032;-64
2023/04/06 05:12:09;;;;;;;;;;;;;;;-146.32;100.00;63746.28;4140575;28;20020;-64
2023/04/06 05:14:20;;;;;;;;;;;;;;;-146.32;100.00;63746.28;4129097;28;20025;-64
2023/04/06 05:16:22;;;;;;;;;;;;;;;-146.32;100.00;63746.28;4128615;28;20381;-64
2023/04/06 05:18:26;;;;;;;;;;;;;;;-146.32;100.00;63746.28;4128535;28;20033;-64
2023/04/06 05:20:29;;;;;;;;;;;;;;;-146.32;100.00;63746.28;4121499;28;20024;-64
2023/04/06 05:22:31;;;;;;;;;;;;;;;-146.32;100.00;63746.28;4121057;28;20020;-64
2023/04/06 05:24:39;;;;;;;;;;;;;;;-146.32;100.00;63746.28;4121278;28;20024;-64
2023/04/06 05:26:44;;;;;;;;;;;;;;;-146.32;100.00;63746.28;4136953;28;20013;-64
2023/04/06 05:28:54;;;;;;;;;;;;;;;-146.32;100.00;63746.28;4137674;28;20373;-64
2023/04/06 05:30:57;;;;;;;;;;;;;;;-146.32;100.00;63746.28;4121885;28;20099;-64
2023/04/06 05:33:00;;;;;;;;;;;;;;;-146.32;100.00;63746.28;4121269;28;20017;-64
2023/04/06 05:35:10;;;;;;;;;;;;;;;-146.32;100.00;63746.28;4137412;28;20020;-64
2023/04/06 05:37:12;;;;;;;;;;;;;;;-146.32;100.00;63746.28;4136978;28;20012;-64
2023/04/06 05:39:15;;;;;;;;;;;;;;;-146.32;100.00;63746.28;4122904;28;20033;-65
2023/04/06 05:41:25;;;;;;;;;;;;;;;-146.32;100.00;63746.28;4122156;28;20009;-65
2023/04/06 05:43:28;;;;;;;;;;;;;;;-146.32;100.00;63746.28;4122933;28;20456;-65
2023/04/06 05:45:34;;;;;;;;;;;;;;;-146.32;100.00;63746.28;4121348;28;20029;-65
2023/04/06 05:47:39;;;;;;;;;;;;;;;-146.32;100.00;63746.28;4143796;28;19979;-64
2023/04/06 05:49:53;;;;;;;;;;;;;;;-146.32;100.00;63746.28;4143158;28;20386;-65
2023/04/06 05:52:05;;;;;;;;;;;;;;;-146.32;100.00;63746.28;4143473;28;20021;-65
2023/04/06 05:54:08;;;;;;;;;;;;;;;-146.32;100.00;63746.28;4128306;28;20029;-65
2023/04/06 05:56:11;;;;;;;;;;;;;;;-146.32;100.00;63746.28;4126883;28;20012;-65
2023/04/06 05:58:13;;;;;;;;;;;;;;;-146.32;100.00;63746.28;4138100;28;20016;-65
2023/04/06 06:00:16;;;;;;;;;;;;;;;-146.32;100.00;63746.28;4127997;28;20024;-64
2023/04/06 06:02:32;;;;;;;;;;;;;;;-146.32;100.00;63746.28;4134349;28;20036;-65
2023/04/06 06:04:34;;;;;;;;;;;;;;;-146.32;100.00;63746.28;4160262;28;20011;-64
2023/04/06 06:06:37;;;;;;;;;;;;;;;-146.32;100.00;63746.28;4137760;28;20013;-64
2023/04/06 06:09:05;;;;;;;;;;;;;;;-146.32;100.00;63746.28;4135193;28;20029;-65
2023/04/06 06:11:12;;;;;;;;;;;;;;;-146.32;100.00;63746.28;4138167;28;20017;-63
2023/04/06 06:13:15;;;;;;;;;;;;;;;-146.32;100.00;63746.28;4138587;28;20028;-65
2023/04/06 06:15:19;;;;;;;;;;;;;;;-146.32;100.00;63746.28;4144156;28;20479;-64
2023/04/06 06:17:27;;;;;;;;;;;;;;;-146.32;100.00;63746.28;4140929;28;20012;-65
2023/04/06 06:19:32;;;;;;;;;;;;;;;-146.32;100.00;63746.28;4123830;28;20017;-65
2023/04/06 06:21:38;;;;;;;;;;;;;;;-146.32;100.00;63746.28;4126028;28;20495;-65
2023/04/06 06:23:42;;;;;;;;;;;;;;;-146.32;100.00;63746.28;4140700;28;20021;-65
2023/04/06 06:25:45;;;;;;;;;;;;;;;-146.32;100.00;63746.28;4118215;28;20033;-65
2023/04/06 06:27:48;;;;;;;;;;;;;;;-146.32;100.00;63746.28;4118969;28;20283;-65
2023/04/06 06:29:52;;;;;;;;;;;;;;;-146.32;100.00;63746.28;4120788;28;20021;-64
2023/04/06 06:31:56;;;;;;;;;;;;;;;-146.32;100.00;63746.28;4127711;28;20016;-64
2023/04/06 06:34:00;;;;;;;;;;;;;;;-146.32;100.00;63746.28;4127917;28;20024;-65
2023/04/06 06:36:02;;;;;;;;;;;;;;;-146.32;100.00;63746.28;4127248;28;20033;-65
2023/04/06 06:38:05;;;;;;;;;;;;;;;-146.32;100.00;63746.28;4119569;28;20041;-65
2023/04/06 06:40:10;;;;;;;;;;;;;;;-146.32;100.00;63746.28;4127171;28;20017;-65
2023/04/06 06:42:12;;;;;;;;;;;;;;;-146.32;100.00;63746.28;4120576;28;20024;-65
2023/04/06 06:44:36;;;;;;;;;;;;;;;-146.32;100.00;63746.28;4128068;28;20021;-64
2023/04/06 06:46:38;;;;;;;;;;;;;;;-146.32;100.00;63746.28;4121676;28;20028;-65
2023/04/06 06:48:43;;;;;;;;;;;;;;;-146.32;100.00;63746.28;4120422;28;20495;-65
2023/04/06 06:50:45;;;;;;;;;;;;;;;-146.32;100.00;63746.28;4122569;28;20012;-65
2023/04/06 06:52:48;;;;;;;;;;;;;;;-146.32;100.00;63746.28;4119720;28;20373;-65
2023/04/06 06:54:50;;;;;;;;;;;;;;;-146.32;100.00;63746.28;4122393;28;20039;-65
2023/04/06 06:56:54;;;;;;;;;;;;;;;-146.32;100.00;63746.28;4120683;28;20016;-65
2023/04/06 06:58:56;;;;;;;;;;;;;;;-146.32;100.00;63746.28;4127772;28;20816;-65
2023/04/06 07:00:59;;;;;;;;;;;;;;;-146.32;100.00;63746.28;4120990;28;20017;-64
2023/04/06 07:03:02;;;;;;;;;;;;;;;-146.32;100.00;63746.28;4118305;28;20024;-65
2023/04/06 07:05:06;;;;;;;;;;;;;;;-146.32;100.00;63746.28;4120284;28;19952;-64
2023/04/06 07:07:09;;;;;;;;;;;;;;;-146.32;100.00;63746.28;4121567;28;20025;-65
2023/04/06 07:09:11;;;;;;;;;;;;;;;-146.32;100.00;63746.28;4121759;28;20020;-65
2023/04/06 07:11:13;;;;;;;;;;;;;;;-146.32;100.00;63746.28;4121851;28;20020;-65
2023/04/06 07:13:18;;;;;;;;;;;;;;;-146.32;100.00;63746.28;4123954;28;20021;-65
2023/04/06 07:15:21;;;;;;;;;;;;;;;-146.32;100.00;63746.28;4131325;28;20065;-65
2023/04/06 07:17:23;;;;;;;;;;;;;;;-146.32;100.00;63746.28;4130856;28;20073;-65
2023/04/06 07:19:27;;;;;;;;;;;;;;;-146.32;100.00;63746.28;4124047;28;20388;-65
2023/04/06 07:21:30;;;;;;;;;;;;;;;-146.32;100.00;63746.28;4124427;28;20021;-64
2023/04/06 07:23:32;;;;;;;;;;;;;;;-146.32;100.00;63746.28;4124050;28;20009;-65
2023/04/06 07:25:35;;;;;;;;;;;;;;;-146.32;100.00;63746.28;4130541;28;20021;-65
2023/04/06 07:27:37;;;;;;;;;;;;;;;-146.32;100.00;63746.28;4129425;28;19997;-64
2023/04/06 07:29:40;;;;;;;;;;;;;;;-146.32;100.00;63746.28;4130408;28;20025;-64
2023/04/06 07:31:42;;;;;;;;;;;;;;;-146.32;100.00;63746.28;4122317;28;20021;-65
2023/04/06 07:33:45;;;;;;;;;;;;;;;-146.32;100.00;63746.28;4138865;28;20020;-65
2023/04/06 07:35:47;;;;;;;;;;;;;;;-146.32;100.00;63746.28;4124502;28;20016;-65
2023/04/06 07:37:51;;;;;;;;;;;;;;;-146.32;100.00;63746.28;4129676;28;20449;-65
2023/04/06 07:39:54;;;;;;;;;;;;;;;-146.32;100.00;63746.28;4123239;28;20037;-63
2023/04/06 07:41:57;;;;;;;;;;;;;;;-146.32;100.00;63746.28;4121962;28;20025;-65
2023/04/06 07:43:59;;;;;;;;;;;;;;;-146.32;100.00;63746.28;4122956;28;20008;-65
2023/04/06 07:46:01;;;;;;;;;;;;;;;-146.32;100.00;63746.28;4147194;28;20008;-64
2023/04/06 07:48:04;;;;;;;;;;;;;;;-146.32;100.00;63746.28;4123683;28;20026;-65
2023/04/06 07:50:08;;;;;;;;;;;;;;;-146.32;100.00;63746.28;4122857;28;20028;-65
2023/04/06 07:52:10;;;;;;;;;;;;;;;-146.32;100.00;63746.28;4129617;28;20025;-65
2023/04/06 07:54:14;;;;;;;;;;;;;;;-146.32;100.00;63746.28;4123086;28;20033;-65
2023/04/06 07:56:16;;;;;;;;;;;;;;;-146.32;100.00;63746.28;4123969;28;20024;-65
2023/04/06 07:58:18;;;;;;;;;;;;;;;-146.32;100.00;63746.28;4123465;28;20017;-65
2023/04/06 08:00:20;;;;;;;;;;;;;;;-146.32;100.00;63746.28;4124076;28;20371;-65
2023/04/06 08:02:25;;;;;;;;;;;;;;;-146.32;100.00;63746.28;4123454;28;20008;-65
2023/04/06 08:04:27;;;;;;;;;;;;;;;-146.32;100.00;63746.28;4124278;28;20017;-65
2023/04/06 08:06:30;;;;;;;;;;;;;;;-146.32;100.00;63746.28;4124072;28;20028;-65
2023/04/06 08:08:32;;;;;;;;;;;;;;;-146.32;100.00;63746.28;4124196;28;20008;-65
2023/04/06 08:10:36;;;;;;;;;;;;;;;-146.32;100.00;63746.28;4124172;28;20049;-65
2023/04/06 08:12:38;;;;;;;;;;;;;;;-146.32;100.00;63746.28;4129189;28;20010;-65
2023/04/06 08:14:40;;;;;;;;;;;;;;;-146.32;100.00;63746.28;4123945;28;20016;-65
2023/04/06 08:16:42;;;;;;;;;;;;;;;-146.32;100.00;63746.28;4122922;28;20025;-65
2023/04/06 08:18:44;;;;;;;;;;;;;;;-146.32;100.00;63746.28;4124121;28;20009;-66
2023/04/06 08:20:46;;;;;;;;;;;;;;;-146.32;100.00;63746.28;4123695;28;20447;-65
2023/04/06 08:22:48;;;;;;;;;;;;;;;-146.32;100.00;63746.28;4123011;28;20036;-65
2023/04/06 08:24:50;;;;;;;;;;;;;;;-146.32;100.00;63746.28;4122407;28;20025;-65
2023/04/06 08:26:53;;;;;;;;;;;;;;;-146.32;100.00;63746.28;4123359;28;20376;-65
2023/04/06 08:28:56;;;;;;;;;;;;;;;-146.32;100.00;63746.28;4123440;28;20021;-65
2023/04/06 08:30:58;;;;;;;;;;;;;;;-146.32;100.00;63746.28;4123720;28;20044;-65
2023/04/06 08:33:00;;;;;;;;;;;;;;;-146.32;100.00;63746.28;4122814;28;20025;-65
2023/04/06 08:35:02;;;;;;;;;;;;;;;-146.32;100.00;63746.28;4123473;28;20024;-64
2023/04/06 08:37:05;;;;;;;;;;;;;;;-146.32;100.00;63746.28;4123160;28;20040;-65
2023/04/06 08:39:07;;;;;;;;;;;;;;;-146.32;100.00;63746.28;4123920;28;20020;-65
2023/04/06 08:41:09;;;;;;;;;;;;;;;-146.32;100.00;63746.28;4123491;28;20452;-65
2023/04/06 08:43:13;;;;;;;;;;;;;;;-146.32;100.00;63746.28;4128718;28;20527;-65
2023/04/06 08:45:16;;;;;;;;;;;;;;;-146.32;100.00;63746.28;4123397;28;20451;-65
2023/04/06 08:47:18;;;;;;;;;;;;;;;-146.32;100.00;63746.28;4122923;28;20012;-65
2023/04/06 08:49:20;;;;;;;;;;;;;;;-146.32;100.00;63746.28;4123122;28;20021;-64
2023/04/06 08:51:22;;;;;;;;;;;;;;;-146.32;100.00;63746.28;4123325;28;20025;-64
2023/04/06 08:53:24;;;;;;;;;;;;;;;-146.32;100.00;63746.28;4122359;28;20001;-65
2023/04/06 08:55:26;;;;;;;;;;;;;;;-146.32;100.00;63746.28;4123206;28;20032;-64
2023/04/06 08:57:28;;;;;;;;;;;;;;;-146.32;100.00;63746.28;4122795;28;20016;-65
2023/04/06 08:59:32;;;;;;;;;;;;;;;-146.32;100.00;63746.28;4123312;28;20020;-65
2023/04/06 09:01:34;;;;;;;;;;;;;;;-146.32;100.00;63746.28;4123140;28;20008;-65
2023/04/06 09:03:38;;;;;;;;;;;;;;;-146.32;100.00;63746.28;4122744;28;20017;-65
2023/04/06 09:05:40;;;;;;;;;;;;;;;-146.32;100.00;63746.28;4123125;28;20369;-65
2023/04/06 09:07:42;;;;;;;;;;;;;;;-146.32;100.00;63746.28;4122265;28;20026;-65
2023/04/06 09:09:47;;;;;;;;;;;;;;;-146.32;100.00;63746.28;4122513;28;20020;-65
2023/04/06 09:11:50;;;;;;;;;;;;;;;-146.32;100.00;63746.28;4122020;28;20018;-65
2023/04/06 09:13:53;;;;;;;;;;;;;;;-146.32;100.00;63746.28;4122836;28;20353;-64
2023/04/06 09:16:04;;;;;;;;;;;;;;;-146.32;100.00;63746.28;4121229;28;20016;-64
2023/04/06 09:18:07;;;;;;;;;;;;;;;-146.32;100.00;63746.28;4122392;28;20016;-65
2023/04/06 09:20:10;;;;;;;;;;;;;;;-146.32;100.00;63746.28;4122576;28;20009;-65
2023/04/06 09:22:12;;;;;;;;;;;;;;;-146.32;100.00;63746.28;4121917;28;20041;-64
2023/04/06 09:24:14;;;;;;;;;;;;;;;-146.32;100.00;63746.28;4122626;28;20013;-65
2023/04/06 09:26:17;;;;;;;;;;;;;;;-146.32;100.00;63746.28;4123009;28;20360;-65
2023/04/06 09:28:19;;;;;;;;;;;;;;;-146.32;100.00;63746.28;4122538;28;20013;-64
2023/04/06 09:30:21;;;;;;;;;;;;;;;-146.32;100.00;63746.28;4122924;28;20026;-64
2023/04/06 09:32:25;;;;;;;;;;;;;;;-146.32;100.00;63746.28;4128059;28;20032;-64
2023/04/06 09:34:27;;;;;;;;;;;;;;;-146.32;100.00;63746.28;4122441;28;20012;-64
2023/04/06 09:36:32;;;;;;;;;;;;;;;-146.32;100.00;63746.28;4122608;28;20028;-64
2023/04/06 09:38:34;;;;;;;;;;;;;;;-146.32;100.00;63746.28;4122723;28;20012;-64
2023/04/06 09:40:36;;;;;;;;;;;;;;;-146.32;100.00;63746.28;4122614;28;20029;-64
2023/04/06 09:42:39;;;;;;;;;;;;;;;-146.32;100.00;63746.28;4121465;28;20005;-64
2023/04/06 09:44:41;;;;;;;;;;;;;;;-146.32;100.00;63746.28;4122220;28;20029;-64
2023/04/06 09:46:43;;;;;;;;;;;;;;;-146.32;100.00;63746.28;4121322;28;20030;-64
2023/04/06 09:48:47;;;;;;;;;;;;;;;-146.32;100.00;63746.28;4122604;28;20459;-64
2023/04/06 09:50:49;;;;;;;;;;;;;;;-146.32;100.00;63746.28;4122638;28;20032;-64
2023/04/06 09:52:53;;;;;;;;;;;;;;;-146.32;100.00;63746.28;4121630;28;20020;-64
2023/04/06 09:54:56;;;;;;;;;;;;;;;-146.32;100.00;63746.28;4122190;28;20009;-64
2023/04/06 09:56:59;;;;;;;;;;;;;;;-146.32;100.00;63746.28;4128159;28;19965;-64
2023/04/06 09:59:03;;;;;;;;;;;;;;;-146.32;100.00;63746.28;4122107;28;20012;-65
2023/04/06 10:01:06;;;;;;;;;;;;;;;-146.32;100.00;63746.28;4122628;28;20593;-64
2023/04/06 10:03:09;;;;;;;;;;;;;;;-146.32;100.00;63746.28;4121199;28;20024;-64
2023/04/06 10:05:17;;;;;;;;;;;;;;;-146.32;100.00;63746.28;4121630;28;20029;-65
2023/04/06 10:07:19;;;;;;;;;;;;;;;-146.32;100.00;63746.28;4122153;28;20009;-64
2023/04/06 10:09:22;;;;;;;;;;;;;;;-146.32;100.00;63746.28;4122292;28;20492;-64
2023/04/06 10:11:24;;;;;;;;;;;;;;;-146.32;100.00;63746.28;4121950;28;20012;-64
2023/04/06 10:13:26;;;;;;;;;;;;;;;-146.32;100.00;63746.28;4121438;28;20020;-64
2023/04/06 10:15:28;;;;;;;;;;;;;;;-146.32;100.00;63746.28;4121703;28;20017;-64
2023/04/06 10:17:30;;;;;;;;;;;;;;;-146.32;100.00;63746.28;4122364;28;20013;-64
2023/04/06 10:19:35;;;;;;;;;;;;;;;-146.32;100.00;63746.28;4122968;28;20424;-64
2023/04/06 10:21:38;;;;;;;;;;;;;;;-146.32;100.00;63746.28;4122039;28;20037;-65
2023/04/06 10:23:41;;;;;;;;;;;;;;;-146.32;100.00;63746.28;4120981;28;21346;-64
2023/04/06 10:25:52;;;;;;;;;;;;;;;-146.32;100.00;63746.28;4122077;28;20024;-64